createdAt,value
2022-08-10T00:01:16.619Z,98824.00
2022-08-10T00:05:18.599Z,98824.00
2022-08-10T00:09:21.171Z,98824.00
2022-08-10T00:13:23.998Z,98837.00
2022-08-10T00:17:25.676Z,98835.00
2022-08-10T00:21:27.324Z,98820.00
2022-08-10T00:25:28.707Z,98818.00
2022-08-10T00:29:30.102Z,98818.00
2022-08-10T00:33:31.087Z,98817.00
2022-08-10T00:37:32.176Z,98816.00
2022-08-10T00:41:33.176Z,98814.00
2022-08-10T00:45:35.590Z,98820.00
2022-08-10T00:49:37.181Z,98808.00
2022-08-10T00:53:38.396Z,98805.00
2022-08-10T00:57:40.283Z,98800.00
2022-08-10T01:02:08.946Z,98808.00
2022-08-10T01:10:18.661Z,98788.00
2022-08-10T01:14:49.162Z,98801.00
2022-08-10T01:19:06.125Z,98791.00
2022-08-10T01:23:35.946Z,98797.00
2022-08-10T01:28:09.561Z,98792.00
2022-08-10T01:32:13.560Z,98793.00
2022-08-10T01:36:18.359Z,98785.00
2022-08-10T01:40:24.395Z,98788.00
2022-08-10T01:44:32.010Z,98788.00
2022-08-10T01:48:45.614Z,98791.00
2022-08-10T01:52:49.913Z,98784.00
2022-08-10T01:56:54.700Z,98794.00
2022-08-10T02:00:58.132Z,98805.00
2022-08-10T02:05:02.911Z,98791.00
2022-08-10T02:09:07.283Z,98803.00
2022-08-10T02:13:10.057Z,98795.00
2022-08-10T02:17:59.431Z,98797.00
2022-08-10T02:21:18.355Z,98796.00
2022-08-10T02:25:41.910Z,98800.00
2022-08-10T02:29:25.403Z,98807.00
2022-08-10T02:33:27.201Z,98804.00
2022-08-10T02:37:30.079Z,98806.00
2022-08-10T02:45:01.647Z,98811.00
2022-08-10T02:45:50.668Z,98814.00
2022-08-10T02:50:01.405Z,98804.00
2022-08-10T02:54:08.699Z,98819.00
2022-08-10T02:58:19.486Z,98812.00
2022-08-10T03:02:30.225Z,98818.00
2022-08-10T03:06:41.351Z,98816.00
2022-08-10T03:10:44.572Z,98819.00
2022-08-10T03:14:46.924Z,98808.00
2022-08-10T03:18:49.207Z,98810.00
2022-08-10T03:22:51.787Z,98804.00
2022-08-10T03:26:54.398Z,98801.00
2022-08-10T03:30:57.622Z,98804.00
2022-08-10T03:34:59.796Z,98794.00
2022-08-10T03:39:00.880Z,98786.00
2022-08-10T03:43:03.078Z,98786.00
2022-08-10T03:47:16.239Z,98793.00
2022-08-10T03:51:10.754Z,98784.00
2022-08-10T03:55:12.278Z,98787.00
2022-08-10T03:59:16.744Z,98788.00
2022-08-10T04:03:18.010Z,98785.00
2022-08-10T04:07:20.908Z,98792.00
2022-08-10T04:11:21.829Z,98791.00
2022-08-10T04:15:24.130Z,98797.00
2022-08-10T04:19:27.622Z,98800.00
2022-08-10T04:23:32.549Z,98801.00
2022-08-10T04:27:34.302Z,98798.00
2022-08-10T04:31:37.183Z,98795.00
2022-08-10T04:35:41.110Z,98809.00
2022-08-10T04:39:43.127Z,98820.00
2022-08-10T04:43:45.416Z,98814.00
2022-08-10T04:47:57.275Z,98817.00
2022-08-10T04:51:49.296Z,98803.00
2022-08-10T04:55:50.283Z,98816.00
2022-08-10T04:59:51.300Z,98808.00
2022-08-10T05:04:36.984Z,98803.00
2022-08-10T05:07:56.927Z,98812.00
2022-08-10T05:11:58.103Z,98814.00
2022-08-10T05:15:59.089Z,98807.00
2022-08-10T05:20:02.949Z,98807.00
2022-08-10T05:24:03.972Z,98815.00
2022-08-10T05:28:06.736Z,98811.00
2022-08-10T05:32:08.382Z,98810.00
2022-08-10T05:36:09.689Z,98809.00
2022-08-10T05:40:11.160Z,98807.00
2022-08-10T05:44:12.959Z,98801.00
2022-08-10T05:48:58.001Z,98800.00
2022-08-10T05:52:17.968Z,98813.00
2022-08-10T05:56:19.217Z,98818.00
2022-08-10T06:00:39.747Z,98818.00
2022-08-10T06:04:29.225Z,98822.00
2022-08-10T06:08:35.485Z,98821.00
2022-08-10T06:12:54.006Z,98827.00
2022-08-10T06:16:44.797Z,98825.00
2022-08-10T06:20:46.547Z,98824.00
2022-08-10T06:25:18.381Z,98820.00
2022-08-10T06:29:03.041Z,98823.00
2022-08-10T06:33:03.066Z,98826.00
2022-08-10T06:37:06.991Z,98837.00
2022-08-10T06:41:13.167Z,98833.00
2022-08-10T06:45:30.411Z,98738.00
2022-08-10T06:49:32.504Z,98836.00
2022-08-10T06:53:53.894Z,98832.00
2022-08-10T06:57:40.636Z,98827.00
2022-08-10T07:01:51.193Z,98838.00
2022-08-10T07:05:51.477Z,98843.00
2022-08-10T07:09:55.238Z,98849.00
2022-08-10T07:14:16.432Z,98842.00
2022-08-10T07:18:03.954Z,98849.00
2022-08-10T07:22:06.338Z,98841.00
2022-08-10T07:26:09.841Z,98847.00
2022-08-10T07:30:12.074Z,98855.00
2022-08-10T07:34:28.650Z,98849.00
2022-08-10T07:38:25.766Z,98847.00
2022-08-10T07:42:30.288Z,98864.00
2022-08-10T07:46:34.725Z,98848.00
2022-08-10T07:50:40.872Z,98846.00
2022-08-10T07:54:44.973Z,98846.00
2022-08-10T07:58:52.611Z,98857.00
2022-08-10T08:02:55.416Z,98858.00
2022-08-10T08:06:59.114Z,98855.00
2022-08-10T08:11:02.268Z,98865.00
2022-08-10T08:15:14.755Z,98857.00
2022-08-10T08:19:26.623Z,98849.00
2022-08-10T08:24:10.567Z,98854.00
2022-08-10T08:27:19.127Z,98856.00
2022-08-10T08:31:22.466Z,98852.00
2022-08-10T08:35:25.601Z,98851.00
2022-08-10T08:39:27.080Z,98853.00
2022-08-10T08:43:41.093Z,98861.00
2022-08-10T08:48:06.626Z,98855.00
2022-08-10T08:52:20.654Z,98850.00
2022-08-10T08:56:28.368Z,98848.00
2022-08-10T09:00:36.911Z,98830.00
2022-08-10T09:05:06.001Z,98834.00
2022-08-10T09:09:22.792Z,98837.00
2022-08-10T09:13:33.577Z,98828.00
2022-08-10T09:17:44.311Z,98841.00
2022-08-10T09:21:58.775Z,98838.00
2022-08-10T09:25:55.256Z,98826.00
2022-08-10T09:29:59.240Z,98828.00
2022-08-10T09:36:25.142Z,98826.00
2022-08-10T09:38:54.287Z,98823.00
2022-08-10T09:43:25.400Z,98818.00
2022-08-10T09:48:00.013Z,98820.00
2022-08-10T09:52:02.278Z,98820.00
2022-08-10T09:56:28.267Z,98814.00
2022-08-10T10:00:33.162Z,98818.00
2022-08-10T10:04:58.065Z,98815.00
2022-08-10T10:09:17.828Z,98811.00
2022-08-10T10:14:02.489Z,98802.00
2022-08-10T10:18:08.889Z,98798.00
2022-08-10T10:22:30.186Z,98775.00
2022-08-10T10:27:00.313Z,98785.00
2022-08-10T10:31:16.441Z,98787.00
2022-08-10T10:35:43.172Z,98778.00
2022-08-10T10:39:48.189Z,98779.00
2022-08-10T10:44:27.697Z,98771.00
2022-08-10T10:49:09.347Z,98762.00
2022-08-10T10:53:25.739Z,98770.00
2022-08-10T10:57:59.266Z,98769.00
2022-08-10T11:01:46.789Z,98760.00
2022-08-10T11:05:51.690Z,98745.00
2022-08-10T11:10:04.093Z,98752.00
2022-08-10T11:14:26.525Z,98745.00
2022-08-10T11:18:15.819Z,98741.00
2022-08-10T11:22:39.336Z,98742.00
2022-08-10T11:26:52.929Z,98741.00
2022-08-10T11:31:13.391Z,98715.00
2022-08-10T11:35:46.323Z,98737.00
2022-08-10T11:39:54.111Z,98728.00
2022-08-10T11:44:02.088Z,98727.00
2022-08-10T11:48:53.209Z,98723.00
2022-08-10T11:52:46.686Z,98718.00
2022-08-10T11:56:51.373Z,98716.00
2022-08-10T12:00:57.054Z,98728.00
2022-08-10T12:05:18.148Z,98719.00
2022-08-10T12:10:09.686Z,98711.00
2022-08-10T12:13:31.751Z,98706.00
2022-08-10T12:17:39.448Z,98702.00
2022-08-10T12:21:44.297Z,98692.00
2022-08-10T12:25:58.835Z,98690.00
2022-08-10T12:30:06.560Z,98695.00
2022-08-10T12:34:20.813Z,98687.00
2022-08-10T12:38:41.172Z,98683.00
2022-08-10T12:43:02.647Z,98689.00
2022-08-10T12:47:14.704Z,98682.00
2022-08-10T12:51:28.533Z,98676.00
2022-08-10T12:55:31.259Z,98674.00
2022-08-10T12:59:43.463Z,98668.00
2022-08-10T13:04:21.570Z,98669.00
2022-08-10T13:08:07.295Z,98663.00
2022-08-10T13:12:36.393Z,98652.00
2022-08-10T13:16:04.917Z,98656.00
2022-08-10T13:20:14.699Z,98651.00
2022-08-10T13:24:19.641Z,98645.00
2022-08-10T13:28:35.513Z,98636.00
2022-08-10T13:32:31.198Z,98646.00
2022-08-10T13:36:35.976Z,98641.00
2022-08-10T13:40:38.639Z,98624.00
2022-08-10T13:44:45.698Z,98634.00
2022-08-10T13:48:47.064Z,98606.00
2022-08-10T13:52:54.438Z,98627.00
2022-08-10T13:56:57.969Z,98616.00
2022-08-10T14:01:01.238Z,98624.00
2022-08-10T14:05:05.442Z,98617.00
2022-08-10T14:09:09.806Z,98605.00
2022-08-10T14:13:14.981Z,98606.00
2022-08-10T14:17:20.136Z,98613.00
2022-08-10T14:21:22.124Z,98600.00
2022-08-10T14:25:24.043Z,98592.00
2022-08-10T14:29:26.826Z,98594.00
2022-08-10T14:33:31.037Z,98592.00
2022-08-10T14:37:37.852Z,98582.00
2022-08-10T14:42:02.547Z,98584.00
2022-08-10T14:45:47.080Z,98578.00
2022-08-10T14:49:57.057Z,98579.00
2022-08-10T14:54:01.344Z,98588.00
2022-08-10T14:58:19.292Z,98580.00
2022-08-10T15:02:38.905Z,98573.00
2022-08-10T15:06:18.149Z,98566.00
2022-08-10T15:10:22.023Z,98565.00
2022-08-10T15:14:42.996Z,98562.00
2022-08-10T15:18:30.276Z,98569.00
2022-08-10T15:22:39.472Z,98567.00
2022-08-10T15:26:36.959Z,98574.00
2022-08-10T15:30:42.452Z,98488.00
2022-08-10T15:35:04.709Z,98550.00
2022-08-10T15:40:26.080Z,98556.00
2022-08-10T15:43:36.884Z,98557.00
2022-08-10T15:47:45.830Z,98548.00
2022-08-10T15:52:04.551Z,98538.00
2022-08-10T15:56:12.737Z,98534.00
2022-08-10T16:00:17.745Z,98525.00
2022-08-10T16:04:31.849Z,98528.00
2022-08-10T16:08:29.322Z,98525.00
2022-08-10T16:12:34.065Z,98507.00
2022-08-10T16:16:37.045Z,98518.00
2022-08-10T16:20:55.270Z,98524.00
2022-08-10T16:24:55.915Z,98506.00
2022-08-10T16:29:12.715Z,98508.00
2022-08-10T16:33:17.537Z,98513.00
2022-08-10T16:37:21.574Z,98519.00
2022-08-10T16:42:03.813Z,98514.00
2022-08-10T16:45:33.143Z,98509.00
2022-08-10T16:49:37.447Z,98505.00
2022-08-10T16:53:42.605Z,98510.00
2022-08-10T16:57:47.211Z,98505.00
2022-08-10T17:01:51.679Z,98507.00
2022-08-10T17:06:11.347Z,98505.00
2022-08-10T17:10:01.689Z,98508.00
2022-08-10T17:14:06.621Z,98497.00
2022-08-10T17:18:12.753Z,98504.00
2022-08-10T17:22:17.852Z,98504.00
2022-08-10T17:26:35.418Z,98502.00
2022-08-10T17:30:35.071Z,98510.00
2022-08-10T17:34:34.877Z,98503.00
2022-08-10T17:38:37.549Z,98491.00
2022-08-10T17:42:40.379Z,98506.00
2022-08-10T17:46:44.476Z,98495.00
2022-08-10T17:50:48.507Z,98501.00
2022-08-10T17:55:02.288Z,98499.00
2022-08-10T17:59:15.175Z,98498.00
2022-08-10T18:03:25.063Z,98505.00
2022-08-10T18:07:35.358Z,98498.00
2022-08-10T18:11:42.908Z,98500.00
2022-08-10T18:15:46.524Z,98503.00
2022-08-10T18:19:54.145Z,98511.00
2022-08-10T18:24:04.835Z,98515.00
2022-08-10T18:28:09.833Z,98512.00
2022-08-10T18:32:11.603Z,98510.00
2022-08-10T18:36:15.746Z,98511.00
2022-08-10T18:40:18.045Z,98517.00
2022-08-10T18:44:21.984Z,98519.00
2022-08-10T18:48:27.281Z,98516.00
2022-08-10T18:52:31.979Z,98514.00
2022-08-10T18:56:52.438Z,98528.00
2022-08-10T19:01:17.185Z,98526.00
2022-08-10T19:05:30.896Z,98538.00
2022-08-10T19:09:45.783Z,98545.00
2022-08-10T19:14:07.177Z,98541.00
2022-08-10T19:18:29.530Z,98543.00
2022-08-10T19:23:05.704Z,98543.00
2022-08-10T19:27:21.953Z,98546.00
2022-08-10T19:31:52.461Z,98548.00
2022-08-10T19:36:21.506Z,98552.00
2022-08-10T19:40:44.054Z,98558.00
2022-08-10T19:45:12.455Z,98555.00
2022-08-10T19:49:40.036Z,98553.00
2022-08-10T19:54:05.110Z,98551.00
2022-08-10T19:58:29.041Z,98552.00
2022-08-10T20:02:33.914Z,98560.00
2022-08-10T20:06:41.636Z,98552.00
2022-08-10T20:10:58.375Z,98560.00
2022-08-10T20:15:33.547Z,98553.00
2022-08-10T20:19:53.615Z,98567.00
2022-08-10T20:24:01.631Z,98561.00
2022-08-10T20:28:12.655Z,98555.00
2022-08-10T20:32:25.891Z,98566.00
2022-08-10T20:36:31.252Z,98566.00
2022-08-10T20:40:44.909Z,98573.00
2022-08-10T20:44:53.195Z,98563.00
2022-08-10T20:49:07.065Z,98570.00
2022-08-10T20:53:10.571Z,98572.00
2022-08-10T20:57:55.567Z,98581.00
2022-08-10T21:02:06.820Z,98577.00
2022-08-10T21:06:06.733Z,98581.00
2022-08-10T21:10:47.226Z,98580.00
2022-08-10T21:15:10.232Z,98574.00
2022-08-10T21:19:20.962Z,98573.00
2022-08-10T21:23:30.292Z,98564.00
2022-08-10T21:28:07.147Z,98573.00
2022-08-10T21:32:20.745Z,98565.00
2022-08-10T21:36:28.210Z,98568.00
2022-08-10T21:41:18.100Z,98561.00
2022-08-10T21:45:16.814Z,98569.00
2022-08-10T21:49:42.387Z,98572.00
2022-08-10T21:54:09.242Z,98571.00
2022-08-10T21:58:38.499Z,98563.00
2022-08-10T22:02:59.193Z,98559.00
2022-08-10T22:07:21.179Z,98560.00
2022-08-10T22:11:45.951Z,98558.00
2022-08-10T22:16:12.815Z,98557.00
2022-08-10T22:20:36.182Z,98552.00
2022-08-10T22:25:16.724Z,98556.00
2022-08-10T22:29:42.586Z,98554.00
2022-08-10T22:34:18.726Z,98558.00
2022-08-10T22:38:47.455Z,98555.00
2022-08-10T22:43:11.145Z,98552.00
2022-08-10T22:47:33.722Z,98558.00
2022-08-10T22:51:41.348Z,98551.00
2022-08-10T22:56:04.470Z,98567.00
2022-08-10T23:00:17.984Z,98557.00
2022-08-10T23:04:44.830Z,98546.00
2022-08-10T23:08:50.030Z,98557.00
2022-08-10T23:12:57.626Z,98559.00
2022-08-10T23:17:20.090Z,98561.00
2022-08-10T23:21:26.953Z,98561.00
2022-08-10T23:25:32.854Z,98558.00
2022-08-10T23:29:35.587Z,98553.00
2022-08-10T23:33:40.565Z,98557.00
2022-08-10T23:37:43.039Z,98552.00
2022-08-10T23:41:46.752Z,98551.00
2022-08-10T23:45:54.295Z,98554.00
2022-08-10T23:49:57.980Z,98545.00
2022-08-10T23:54:11.532Z,98547.00
2022-08-10T23:58:33.107Z,98530.00
